createdAt,value
2022-10-05T00:02:26.115Z,87.17
2022-10-05T00:05:35.667Z,87.32
2022-10-05T00:08:44.606Z,87.10
2022-10-05T00:11:53.216Z,87.23
2022-10-05T00:15:03.628Z,86.79
2022-10-05T00:18:17.432Z,86.59
2022-10-05T00:21:28.134Z,86.99
2022-10-05T00:24:36.870Z,87.30
2022-10-05T00:27:52.534Z,87.21
2022-10-05T00:31:02.140Z,87.52
2022-10-05T00:34:11.821Z,87.36
2022-10-05T00:37:20.297Z,86.87
2022-10-05T00:40:41.987Z,86.87
2022-10-05T00:44:25.000Z,86.84
2022-10-05T00:47:55.691Z,87.26
2022-10-05T00:51:25.638Z,87.62
2022-10-05T00:54:46.402Z,87.77
2022-10-05T00:58:12.364Z,87.60
2022-10-05T01:01:32.401Z,87.64
2022-10-05T01:04:52.546Z,87.19
2022-10-05T01:08:18.218Z,87.67
2022-10-05T01:11:34.307Z,88.02
2022-10-05T01:14:57.057Z,88.11
2022-10-05T01:18:17.510Z,87.95
2022-10-05T01:21:28.349Z,87.91
2022-10-05T01:25:03.418Z,87.37
2022-10-05T01:28:23.449Z,87.92
2022-10-05T01:31:46.488Z,87.38
2022-10-05T01:35:06.308Z,87.19
2022-10-05T01:38:31.535Z,87.57
2022-10-05T01:41:54.864Z,87.84
2022-10-05T01:45:16.661Z,87.13
2022-10-05T01:48:44.240Z,87.24
2022-10-05T01:52:21.585Z,87.41
2022-10-05T01:55:40.549Z,87.68
2022-10-05T01:59:02.459Z,87.46
2022-10-05T02:02:18.797Z,86.31
2022-10-05T02:05:37.067Z,85.75
2022-10-05T02:08:53.583Z,86.61
2022-10-05T02:12:08.101Z,86.57
2022-10-05T02:15:25.458Z,86.56
2022-10-05T02:18:44.156Z,86.24
2022-10-05T02:22:01.282Z,86.67
2022-10-05T02:25:14.765Z,86.65
2022-10-05T02:28:29.324Z,87.11
2022-10-05T02:31:46.100Z,87.12
2022-10-05T02:35:05.142Z,87.13
2022-10-05T02:38:25.557Z,86.90
2022-10-05T02:41:52.665Z,86.73
2022-10-05T02:45:18.379Z,86.80
2022-10-05T02:48:40.701Z,86.58
2022-10-05T02:52:01.020Z,86.85
2022-10-05T02:55:20.437Z,87.24
2022-10-05T02:58:43.046Z,86.89
2022-10-05T03:01:55.964Z,86.97
2022-10-05T03:05:19.812Z,86.89
2022-10-05T03:08:41.061Z,86.95
2022-10-05T03:12:02.233Z,86.97
2022-10-05T03:15:35.416Z,86.33
2022-10-05T03:19:00.744Z,86.58
2022-10-05T03:22:28.417Z,86.99
2022-10-05T03:26:04.055Z,86.79
2022-10-05T03:29:30.449Z,86.92
2022-10-05T03:32:56.255Z,87.07
2022-10-05T03:36:17.323Z,87.08
2022-10-05T03:39:36.397Z,86.88
2022-10-05T03:43:07.233Z,86.74
2022-10-05T03:46:30.972Z,87.25
2022-10-05T03:50:17.202Z,87.14
2022-10-05T03:53:33.148Z,87.25
2022-10-05T03:56:49.903Z,86.78
2022-10-05T04:00:06.850Z,87.11
2022-10-05T04:03:38.325Z,87.27
2022-10-05T04:06:51.963Z,87.78
2022-10-05T04:10:06.991Z,87.23
2022-10-05T04:13:26.545Z,87.36
2022-10-05T04:16:44.568Z,87.83
2022-10-05T04:20:03.445Z,87.48
2022-10-05T04:23:27.053Z,86.87
2022-10-05T04:26:45.198Z,86.90
2022-10-05T04:30:03.396Z,86.59
2022-10-05T04:33:16.013Z,86.93
2022-10-05T04:36:35.188Z,87.23
2022-10-05T04:40:00.172Z,87.14
2022-10-05T04:43:25.340Z,86.80
2022-10-05T04:46:51.566Z,86.16
2022-10-05T04:50:21.877Z,85.99
2022-10-05T04:53:55.325Z,85.79
2022-10-05T04:57:12.992Z,86.45
2022-10-05T05:00:28.910Z,86.27
2022-10-05T05:04:12.091Z,86.60
2022-10-05T05:07:41.575Z,85.52
2022-10-05T05:11:23.689Z,86.30
2022-10-05T05:15:04.083Z,85.89
2022-10-05T05:18:58.682Z,85.34
2022-10-05T05:22:21.307Z,85.88
2022-10-05T05:25:45.289Z,85.87
2022-10-05T05:29:10.038Z,85.89
2022-10-05T05:32:30.902Z,86.11
2022-10-05T05:36:11.254Z,85.48
2022-10-05T05:39:31.811Z,85.48
2022-10-05T05:42:56.784Z,85.00
2022-10-05T05:46:18.237Z,85.06
2022-10-05T05:49:42.774Z,84.08
2022-10-05T05:52:59.659Z,83.95
2022-10-05T05:56:13.363Z,84.71
2022-10-05T05:59:34.287Z,84.29
2022-10-05T06:02:50.692Z,84.05
2022-10-05T06:06:05.338Z,83.63
2022-10-05T06:09:24.443Z,83.94
2022-10-05T06:12:51.677Z,83.74
2022-10-05T06:16:13.864Z,83.21
2022-10-05T06:19:25.372Z,81.68
2022-10-05T06:22:42.046Z,81.94
2022-10-05T06:26:11.040Z,81.60
2022-10-05T06:29:27.961Z,81.85
2022-10-05T06:33:06.162Z,82.13
2022-10-05T06:36:33.752Z,82.57
2022-10-05T06:40:10.287Z,82.46
2022-10-05T06:43:56.017Z,81.43
2022-10-05T06:47:37.722Z,81.36
2022-10-05T06:51:05.721Z,81.06
2022-10-05T06:54:53.249Z,82.08
2022-10-05T06:58:22.347Z,80.25
2022-10-05T07:01:52.068Z,80.70
2022-10-05T07:05:45.972Z,81.60
2022-10-05T07:09:22.197Z,80.97
2022-10-05T07:13:07.355Z,78.57
2022-10-05T07:16:31.777Z,78.53
2022-10-05T07:19:52.579Z,76.93
2022-10-05T07:23:28.722Z,76.43
2022-10-05T07:26:47.549Z,76.78
2022-10-05T07:30:04.683Z,75.74
2022-10-05T07:33:26.191Z,76.34
2022-10-05T07:37:03.310Z,74.34
2022-10-05T07:40:20.529Z,73.67
2022-10-05T07:44:01.538Z,74.02
2022-10-05T07:47:25.844Z,73.34
2022-10-05T07:50:41.474Z,72.33
2022-10-05T07:54:06.594Z,72.95
2022-10-05T07:57:25.273Z,71.89
2022-10-05T08:00:59.803Z,71.21
2022-10-05T08:04:18.050Z,71.53
2022-10-05T08:07:26.645Z,68.76
2022-10-05T08:10:46.109Z,68.51
2022-10-05T08:14:01.960Z,67.70
2022-10-05T08:17:26.580Z,66.57
2022-10-05T08:20:46.827Z,66.11
2022-10-05T08:24:05.204Z,65.14
2022-10-05T08:27:22.012Z,65.16
2022-10-05T08:30:37.008Z,64.46
2022-10-05T08:34:02.643Z,64.55
2022-10-05T08:37:20.129Z,63.73
2022-10-05T08:41:01.986Z,61.16
2022-10-05T08:44:55.088Z,61.39
2022-10-05T08:48:43.944Z,58.37
2022-10-05T08:52:29.946Z,58.88
2022-10-05T08:55:57.609Z,59.34
2022-10-05T08:59:47.419Z,58.46
2022-10-05T09:03:36.198Z,57.12
2022-10-05T09:07:11.061Z,57.77
2022-10-05T09:11:11.008Z,58.18
2022-10-05T09:14:40.676Z,57.67
2022-10-05T09:18:38.462Z,52.17
2022-10-05T09:21:59.256Z,50.64
2022-10-05T09:25:24.706Z,52.84
2022-10-05T09:28:55.920Z,51.19
2022-10-05T09:32:51.630Z,49.12
2022-10-05T09:37:05.441Z,47.10
2022-10-05T09:40:56.824Z,47.23
2022-10-05T09:44:42.664Z,45.58
2022-10-05T09:48:38.482Z,44.11
2022-10-05T09:52:19.973Z,45.80
2022-10-05T09:56:21.133Z,45.61
2022-10-05T10:00:16.232Z,46.28
2022-10-05T10:04:01.270Z,49.27
2022-10-05T10:07:54.122Z,47.28
2022-10-05T10:11:35.431Z,45.24
2022-10-05T10:15:57.629Z,42.47
2022-10-05T10:19:41.276Z,42.66
2022-10-05T10:23:11.336Z,45.23
2022-10-05T10:27:10.565Z,44.52
2022-10-05T10:30:47.669Z,43.37
2022-10-05T10:34:38.708Z,43.73
2022-10-05T10:38:28.513Z,43.51
2022-10-05T10:42:09.911Z,43.89
2022-10-05T10:45:44.044Z,43.11
2022-10-05T10:49:24.262Z,43.76
2022-10-05T10:52:54.787Z,43.09
2022-10-05T10:56:30.129Z,43.67
2022-10-05T11:00:28.246Z,42.67
2022-10-05T11:04:20.148Z,46.66
2022-10-05T11:08:12.586Z,41.60
2022-10-05T11:11:58.966Z,42.64
2022-10-05T11:15:41.318Z,40.63
2022-10-05T11:19:20.681Z,41.65
2022-10-05T11:23:00.230Z,39.83
2022-10-05T11:26:33.563Z,40.75
2022-10-05T11:30:48.892Z,39.79
2022-10-05T11:34:44.266Z,41.53
2022-10-05T11:39:02.348Z,39.06
2022-10-05T11:42:57.631Z,40.11
2022-10-05T11:46:17.918Z,39.54
2022-10-05T11:49:43.201Z,39.96
2022-10-05T11:53:00.166Z,38.52
2022-10-05T11:56:20.433Z,38.90
2022-10-05T11:59:37.781Z,37.99
2022-10-05T12:03:23.807Z,39.17
2022-10-05T12:07:07.772Z,40.35
2022-10-05T12:10:32.842Z,39.66
2022-10-05T12:13:48.963Z,39.06
2022-10-05T12:17:06.035Z,39.36
2022-10-05T12:20:22.544Z,39.65
2022-10-05T12:23:41.268Z,40.19
2022-10-05T12:26:58.900Z,39.56
2022-10-05T12:30:17.172Z,38.40
2022-10-05T12:33:34.412Z,38.72
2022-10-05T12:37:04.105Z,40.41
2022-10-05T12:40:37.359Z,40.27
2022-10-05T12:44:04.167Z,39.81
2022-10-05T12:47:23.648Z,39.13
2022-10-05T12:50:38.323Z,39.56
2022-10-05T12:53:58.785Z,38.30
2022-10-05T12:57:21.365Z,38.27
2022-10-05T13:00:35.439Z,38.36
2022-10-05T13:03:53.895Z,37.38
2022-10-05T13:07:42.876Z,41.76
2022-10-05T13:11:02.086Z,39.19
2022-10-05T13:14:38.926Z,38.84
2022-10-05T13:18:02.711Z,39.62
2022-10-05T13:21:19.766Z,40.78
2022-10-05T13:24:39.494Z,39.81
2022-10-05T13:28:06.530Z,40.77
2022-10-05T13:31:24.198Z,39.61
2022-10-05T13:34:41.411Z,38.63
2022-10-05T13:38:04.595Z,39.71
2022-10-05T13:41:25.012Z,39.37
2022-10-05T13:44:44.724Z,37.97
2022-10-05T13:48:19.757Z,37.80
2022-10-05T13:51:39.971Z,39.57
2022-10-05T13:55:00.139Z,39.05
2022-10-05T13:58:25.181Z,38.38
2022-10-05T14:01:45.125Z,40.58
2022-10-05T14:05:01.961Z,40.44
2022-10-05T14:08:18.864Z,40.87
2022-10-05T14:11:34.976Z,40.59
2022-10-05T14:14:51.439Z,39.89
2022-10-05T14:18:00.380Z,40.17
2022-10-05T14:21:23.409Z,42.04
2022-10-05T14:24:44.203Z,41.23
2022-10-05T14:28:23.947Z,40.77
2022-10-05T14:31:37.763Z,42.17
2022-10-05T14:34:56.382Z,40.01
2022-10-05T14:38:21.885Z,41.74
2022-10-05T14:41:35.037Z,41.82
2022-10-05T14:44:46.009Z,40.28
2022-10-05T14:48:04.008Z,41.81
2022-10-05T14:51:28.289Z,41.45
2022-10-05T14:55:00.905Z,42.04
2022-10-05T14:58:30.051Z,41.73
2022-10-05T15:01:49.710Z,41.60
2022-10-05T15:05:05.347Z,41.94
2022-10-05T15:08:39.221Z,42.85
2022-10-05T15:11:54.838Z,42.43
2022-10-05T15:15:15.950Z,42.50
2022-10-05T15:18:40.934Z,43.36
2022-10-05T15:22:26.332Z,44.32
2022-10-05T15:25:43.655Z,44.09
2022-10-05T15:29:03.310Z,44.89
2022-10-05T15:32:32.164Z,45.71
2022-10-05T15:36:04.337Z,48.26
2022-10-05T15:39:27.290Z,50.42
2022-10-05T15:42:41.559Z,51.50
2022-10-05T15:46:04.680Z,50.26
2022-10-05T15:49:33.806Z,51.00
2022-10-05T15:52:50.578Z,51.42
2022-10-05T15:56:09.132Z,52.86
2022-10-05T15:59:31.875Z,53.82
2022-10-05T16:02:52.836Z,56.62
2022-10-05T16:06:28.216Z,57.92
2022-10-05T16:09:56.277Z,59.70
2022-10-05T16:13:22.996Z,60.52
2022-10-05T16:16:42.819Z,62.06
2022-10-05T16:20:16.996Z,63.52
2022-10-05T16:23:41.676Z,63.33
2022-10-05T16:26:59.452Z,63.64
2022-10-05T16:30:15.596Z,64.30
2022-10-05T16:33:37.190Z,64.12
2022-10-05T16:37:03.165Z,65.11
2022-10-05T16:40:21.635Z,66.40
2022-10-05T16:43:44.842Z,67.05
2022-10-05T16:47:02.566Z,68.16
2022-10-05T16:50:24.230Z,69.26
2022-10-05T16:53:42.239Z,69.63
2022-10-05T16:56:57.291Z,70.39
2022-10-05T17:00:18.999Z,70.63
2022-10-05T17:03:51.569Z,71.52
2022-10-05T17:07:41.248Z,71.61
2022-10-05T17:14:35.560Z,72.86
2022-10-05T17:18:23.506Z,73.02
2022-10-05T17:21:44.446Z,73.71
2022-10-05T17:25:06.841Z,74.02
2022-10-05T17:28:36.673Z,74.57
2022-10-05T17:32:14.005Z,75.06
2022-10-05T17:35:42.047Z,76.33
2022-10-05T17:38:53.838Z,76.37
2022-10-05T17:42:46.334Z,77.55
2022-10-05T17:46:00.501Z,78.05
2022-10-05T17:49:39.825Z,78.16
2022-10-05T17:53:39.968Z,78.72
2022-10-05T17:57:23.372Z,79.53
2022-10-05T18:00:44.627Z,79.08
2022-10-05T18:03:56.186Z,79.62
2022-10-05T18:07:21.315Z,79.11
2022-10-05T18:10:33.042Z,79.62
2022-10-05T18:13:50.415Z,78.88
2022-10-05T18:17:02.431Z,79.22
2022-10-05T18:20:32.432Z,78.96
2022-10-05T18:23:50.812Z,78.45
2022-10-05T18:27:34.271Z,79.38
2022-10-05T18:31:05.334Z,80.26
2022-10-05T18:34:31.033Z,80.82
2022-10-05T18:37:57.965Z,81.07
2022-10-05T18:41:19.526Z,80.80
2022-10-05T18:44:40.939Z,79.87
2022-10-05T18:48:10.003Z,80.66
2022-10-05T18:51:29.805Z,81.43
2022-10-05T18:54:59.393Z,81.71
2022-10-05T18:58:26.740Z,82.09
2022-10-05T19:02:13.990Z,82.79
2022-10-05T19:05:48.410Z,82.59
2022-10-05T19:09:11.409Z,82.89
2022-10-05T19:12:41.346Z,83.32
2022-10-05T19:16:06.462Z,82.82
2022-10-05T19:19:53.839Z,83.08
2022-10-05T19:23:27.123Z,83.04
2022-10-05T19:26:57.396Z,84.00
2022-10-05T19:30:24.201Z,83.49
2022-10-05T19:33:56.536Z,84.12
2022-10-05T19:37:14.719Z,84.09
2022-10-05T19:40:35.220Z,83.49
2022-10-05T19:44:09.063Z,83.49
2022-10-05T19:47:38.883Z,84.59
2022-10-05T19:50:59.327Z,84.08
2022-10-05T19:54:24.886Z,83.99
2022-10-05T19:57:33.551Z,83.90
2022-10-05T20:00:45.665Z,83.61
2022-10-05T20:03:58.166Z,83.94
2022-10-05T20:07:06.665Z,83.94
2022-10-05T20:10:33.668Z,83.63
2022-10-05T20:13:44.778Z,83.49
2022-10-05T20:17:36.231Z,83.66
2022-10-05T20:20:48.646Z,83.53
2022-10-05T20:24:12.777Z,83.20
2022-10-05T20:27:48.093Z,83.18
2022-10-05T20:30:56.516Z,83.03
2022-10-05T20:34:05.352Z,82.55
2022-10-05T20:37:18.489Z,82.21
2022-10-05T20:40:27.536Z,81.25
2022-10-05T20:43:38.969Z,81.89
2022-10-05T20:46:47.683Z,81.33
2022-10-05T20:49:56.432Z,81.50
2022-10-05T20:53:11.580Z,79.94
2022-10-05T20:56:20.366Z,79.45
2022-10-05T20:59:31.134Z,80.19
2022-10-05T21:02:42.383Z,79.26
2022-10-05T21:05:51.837Z,79.17
2022-10-05T21:09:03.275Z,79.90
2022-10-05T21:12:13.822Z,80.39
2022-10-05T21:15:23.365Z,80.04
2022-10-05T21:18:32.135Z,80.28
2022-10-05T21:21:41.570Z,80.19
2022-10-05T21:24:51.068Z,80.78
2022-10-05T21:27:59.439Z,80.05
2022-10-05T21:31:08.584Z,78.74
2022-10-05T21:34:17.142Z,79.05
2022-10-05T21:37:25.517Z,79.24
2022-10-05T21:40:36.799Z,79.86
2022-10-05T21:43:45.734Z,80.34
2022-10-05T21:46:54.071Z,80.32
2022-10-05T21:50:08.619Z,80.47
2022-10-05T21:53:21.528Z,81.28
2022-10-05T21:56:36.284Z,80.86
2022-10-05T21:59:45.388Z,81.12
2022-10-05T22:02:53.673Z,81.12
2022-10-05T22:06:03.682Z,81.21
2022-10-05T22:09:12.171Z,81.05
2022-10-05T22:12:22.350Z,81.15
2022-10-05T22:15:32.424Z,80.44
2022-10-05T22:18:41.220Z,79.67
2022-10-05T22:21:49.475Z,79.39
2022-10-05T22:24:57.786Z,79.69
2022-10-05T22:28:11.599Z,80.13
2022-10-05T22:31:20.513Z,80.71
2022-10-05T22:34:29.239Z,81.66
2022-10-05T22:37:38.781Z,80.86
2022-10-05T22:40:47.491Z,80.70
2022-10-05T22:43:57.370Z,81.05
2022-10-05T22:47:05.722Z,80.68
2022-10-05T22:50:13.899Z,80.74
2022-10-05T22:53:22.336Z,80.93
2022-10-05T22:56:30.840Z,81.53
2022-10-05T22:59:40.615Z,81.43
2022-10-05T23:02:48.974Z,81.62
2022-10-05T23:06:03.180Z,81.63
2022-10-05T23:09:11.396Z,81.89
2022-10-05T23:12:19.565Z,81.35
2022-10-05T23:15:29.302Z,81.22
2022-10-05T23:18:38.266Z,81.99
2022-10-05T23:21:57.724Z,82.21
2022-10-05T23:25:08.022Z,81.96
2022-10-05T23:28:27.315Z,82.82
2022-10-05T23:31:37.332Z,82.61
2022-10-05T23:34:45.431Z,82.67
2022-10-05T23:37:53.590Z,82.64
2022-10-05T23:41:02.552Z,82.36
2022-10-05T23:44:10.625Z,82.15
2022-10-05T23:47:20.114Z,82.89
2022-10-05T23:50:28.201Z,82.92
2022-10-05T23:53:38.319Z,83.03
2022-10-05T23:56:46.529Z,82.72
2022-10-05T23:59:56.188Z,82.75
